sensor_id;sensor_type;location;lat;lon;timestamp;pressure;altitude;pressure_sealevel;temperature;humidity
56082;BME280;41957;52.060;5.138;2023-01-15T00:01:01;99848.03;;;16.51;54.07
56082;BME280;41957;52.060;5.138;2023-01-15T00:03:28;99844.78;;;16.46;54.01
56082;BME280;41957;52.060;5.138;2023-01-15T00:05:53;99852.00;;;16.44;53.95
56082;BME280;41957;52.060;5.138;2023-01-15T00:08:18;99860.88;;;16.43;53.85
56082;BME280;41957;52.060;5.138;2023-01-15T00:10:44;99856.47;;;16.43;54.34
56082;BME280;41957;52.060;5.138;2023-01-15T00:13:10;99841.38;;;16.44;53.87
56082;BME280;41957;52.060;5.138;2023-01-15T00:15:35;99844.78;;;16.46;53.75
56082;BME280;41957;52.060;5.138;2023-01-15T00:18:01;99839.66;;;16.43;54.39
56082;BME280;41957;52.060;5.138;2023-01-15T00:20:26;99843.94;;;16.45;54.21
56082;BME280;41957;52.060;5.138;2023-01-15T00:22:52;99843.19;;;16.43;54.44
56082;BME280;41957;52.060;5.138;2023-01-15T00:25:17;99840.53;;;16.43;54.14
56082;BME280;41957;52.060;5.138;2023-01-15T00:28:01;99839.59;;;16.44;54.06
56082;BME280;41957;52.060;5.138;2023-01-15T00:30:26;99844.97;;;16.43;54.08
56082;BME280;41957;52.060;5.138;2023-01-15T00:32:51;99835.41;;;16.40;53.39
56082;BME280;41957;52.060;5.138;2023-01-15T00:35:19;99836.78;;;16.32;53.58
56082;BME280;41957;52.060;5.138;2023-01-15T00:37:45;99835.84;;;16.33;54.14
56082;BME280;41957;52.060;5.138;2023-01-15T00:40:12;99837.19;;;16.40;54.36
56082;BME280;41957;52.060;5.138;2023-01-15T00:42:38;99831.81;;;16.41;53.54
56082;BME280;41957;52.060;5.138;2023-01-15T00:45:05;99830.78;;;16.44;54.51
56082;BME280;41957;52.060;5.138;2023-01-15T00:47:39;99830.44;;;16.34;54.28
56082;BME280;41957;52.060;5.138;2023-01-15T00:50:07;99821.63;;;16.34;54.23
56082;BME280;41957;52.060;5.138;2023-01-15T00:52:33;99835.59;;;16.37;54.06
56082;BME280;41957;52.060;5.138;2023-01-15T00:54:58;99832.16;;;16.35;54.49
56082;BME280;41957;52.060;5.138;2023-01-15T00:57:24;99831.47;;;16.32;54.08
56082;BME280;41957;52.060;5.138;2023-01-15T00:59:49;99836.59;;;16.35;54.30
56082;BME280;41957;52.060;5.138;2023-01-15T01:02:15;99835.59;;;16.37;54.82
56082;BME280;41957;52.060;5.138;2023-01-15T01:04:40;99842.59;;;16.38;54.19
56082;BME280;41957;52.060;5.138;2023-01-15T01:07:05;99835.66;;;16.36;54.15
56082;BME280;41957;52.060;5.138;2023-01-15T01:09:31;99827.88;;;16.33;53.94
56082;BME280;41957;52.060;5.138;2023-01-15T01:11:56;99837.97;;;16.26;53.85
56082;BME280;41957;52.060;5.138;2023-01-15T01:14:21;99843.97;;;16.29;53.91
56082;BME280;41957;52.060;5.138;2023-01-15T01:16:47;99837.47;;;16.19;52.89
56082;BME280;41957;52.060;5.138;2023-01-15T01:19:18;99836.09;;;15.80;53.20
56082;BME280;41957;52.060;5.138;2023-01-15T01:21:45;99851.41;;;15.58;53.24
56082;BME280;41957;52.060;5.138;2023-01-15T01:24:12;99851.72;;;15.52;53.13
56082;BME280;41957;52.060;5.138;2023-01-15T01:26:38;99843.38;;;15.44;53.16
56082;BME280;41957;52.060;5.138;2023-01-15T01:29:04;99835.81;;;15.36;52.75
56082;BME280;41957;52.060;5.138;2023-01-15T01:31:30;99845.97;;;15.28;53.30
56082;BME280;41957;52.060;5.138;2023-01-15T01:33:56;99837.47;;;15.54;53.53
56082;BME280;41957;52.060;5.138;2023-01-15T01:36:33;99848.06;;;15.72;53.29
56082;BME280;41957;52.060;5.138;2023-01-15T01:39:00;99850.03;;;15.84;52.97
56082;BME280;41957;52.060;5.138;2023-01-15T01:41:26;99853.63;;;15.83;53.26
56082;BME280;41957;52.060;5.138;2023-01-15T01:44:06;99848.22;;;15.85;53.51
56082;BME280;41957;52.060;5.138;2023-01-15T01:46:34;99851.16;;;15.80;53.34
56082;BME280;41957;52.060;5.138;2023-01-15T01:49:09;99852.56;;;15.70;53.55
56082;BME280;41957;52.060;5.138;2023-01-15T01:51:40;99859.16;;;15.78;53.65
56082;BME280;41957;52.060;5.138;2023-01-15T01:54:08;99851.81;;;15.68;53.58
56082;BME280;41957;52.060;5.138;2023-01-15T01:56:35;99851.50;;;15.74;53.71
56082;BME280;41957;52.060;5.138;2023-01-15T01:59:02;99858.66;;;15.72;53.10
56082;BME280;41957;52.060;5.138;2023-01-15T02:01:28;99859.50;;;15.72;53.63
56082;BME280;41957;52.060;5.138;2023-01-15T02:03:53;99855.78;;;15.76;53.65
56082;BME280;41957;52.060;5.138;2023-01-15T02:06:20;99847.56;;;15.64;53.77
56082;BME280;41957;52.060;5.138;2023-01-15T02:08:46;99850.31;;;15.62;53.63
56082;BME280;41957;52.060;5.138;2023-01-15T02:11:16;99849.38;;;15.63;53.60
56082;BME280;41957;52.060;5.138;2023-01-15T02:21:50;99835.50;;;15.58;53.69
56082;BME280;41957;52.060;5.138;2023-01-15T02:24:29;99824.56;;;15.64;53.68
56082;BME280;41957;52.060;5.138;2023-01-15T02:27:12;99829.53;;;15.54;53.24
56082;BME280;41957;52.060;5.138;2023-01-15T02:30:03;99838.50;;;15.52;53.76
56082;BME280;41957;52.060;5.138;2023-01-15T02:32:50;99831.16;;;15.57;53.64
56082;BME280;41957;52.060;5.138;2023-01-15T02:35:24;99838.50;;;15.52;53.62
56082;BME280;41957;52.060;5.138;2023-01-15T02:37:54;99833.00;;;15.39;53.65
56082;BME280;41957;52.060;5.138;2023-01-15T02:40:22;99836.94;;;15.48;53.65
56082;BME280;41957;52.060;5.138;2023-01-15T02:42:49;99841.78;;;15.40;53.56
56082;BME280;41957;52.060;5.138;2023-01-15T02:45:27;99833.84;;;15.40;53.64
56082;BME280;41957;52.060;5.138;2023-01-15T02:47:57;99837.69;;;15.34;54.21
56082;BME280;41957;52.060;5.138;2023-01-15T02:50:29;99837.59;;;15.35;54.17
56082;BME280;41957;52.060;5.138;2023-01-15T02:53:00;99838.22;;;15.41;53.93
56082;BME280;41957;52.060;5.138;2023-01-15T02:55:32;99832.94;;;15.41;53.59
56082;BME280;41957;52.060;5.138;2023-01-15T02:58:02;99843.69;;;15.37;53.83
56082;BME280;41957;52.060;5.138;2023-01-15T03:00:30;99833.84;;;15.40;54.09
56082;BME280;41957;52.060;5.138;2023-01-15T03:03:11;99826.94;;;15.37;53.93
56082;BME280;41957;52.060;5.138;2023-01-15T03:05:46;99817.09;;;15.39;53.70
56082;BME280;41957;52.060;5.138;2023-01-15T03:08:13;99814.88;;;15.31;53.99
56082;BME280;41957;52.060;5.138;2023-01-15T03:10:47;99815.97;;;15.27;53.69
56082;BME280;41957;52.060;5.138;2023-01-15T03:26:56;99822.00;;;15.13;53.93
56082;BME280;41957;52.060;5.138;2023-01-15T03:29:23;99814.59;;;15.20;53.86
56082;BME280;41957;52.060;5.138;2023-01-15T03:31:50;99806.03;;;15.15;53.42
56082;BME280;41957;52.060;5.138;2023-01-15T03:34:16;99816.44;;;15.18;53.78
56082;BME280;41957;52.060;5.138;2023-01-15T03:36:42;99808.75;;;15.13;54.04
56082;BME280;41957;52.060;5.138;2023-01-15T03:39:07;99809.56;;;15.16;53.71
56082;BME280;41957;52.060;5.138;2023-01-15T03:55:09;99800.13;;;15.10;53.40
56082;BME280;41957;52.060;5.138;2023-01-15T03:57:48;99810.25;;;15.02;53.46
56082;BME280;41957;52.060;5.138;2023-01-15T04:00:26;99805.44;;;14.93;53.77
56082;BME280;41957;52.060;5.138;2023-01-15T04:02:56;99804.13;;;15.01;53.57
56082;BME280;41957;52.060;5.138;2023-01-15T04:05:24;99794.38;;;15.02;53.65
56082;BME280;41957;52.060;5.138;2023-01-15T04:07:53;99807.69;;;15.00;53.46
56082;BME280;41957;52.060;5.138;2023-01-15T04:10:19;99805.91;;;15.01;53.70
56082;BME280;41957;52.060;5.138;2023-01-15T04:12:44;99811.19;;;15.01;53.70
56082;BME280;41957;52.060;5.138;2023-01-15T04:15:11;99811.09;;;15.02;53.80
56082;BME280;41957;52.060;5.138;2023-01-15T04:17:37;99809.31;;;15.03;53.63
56082;BME280;41957;52.060;5.138;2023-01-15T04:20:02;99813.84;;;15.01;53.83
56082;BME280;41957;52.060;5.138;2023-01-15T04:22:28;99808.56;;;15.01;53.42
56082;BME280;41957;52.060;5.138;2023-01-15T04:24:55;99803.25;;;15.01;53.59
56082;BME280;41957;52.060;5.138;2023-01-15T04:27:20;99806.81;;;15.00;53.56
56082;BME280;41957;52.060;5.138;2023-01-15T04:29:46;99805.44;;;14.93;53.25
56082;BME280;41957;52.060;5.138;2023-01-15T04:32:11;99804.81;;;14.87;53.47
56082;BME280;41957;52.060;5.138;2023-01-15T04:34:36;99798.44;;;14.91;53.67
56082;BME280;41957;52.060;5.138;2023-01-15T04:37:02;99811.59;;;14.93;53.35
56082;BME280;41957;52.060;5.138;2023-01-15T04:39:27;99798.59;;;14.88;53.15
56082;BME280;41957;52.060;5.138;2023-01-15T04:41:53;99797.81;;;14.86;53.29
56082;BME280;41957;52.060;5.138;2023-01-15T04:44:38;99810.72;;;14.93;53.29
56082;BME280;41957;52.060;5.138;2023-01-15T04:47:04;99802.25;;;14.86;53.30
56082;BME280;41957;52.060;5.138;2023-01-15T04:49:30;99805.59;;;14.89;53.16
56082;BME280;41957;52.060;5.138;2023-01-15T04:51:55;99791.59;;;14.87;53.30
56082;BME280;41957;52.060;5.138;2023-01-15T04:54:21;99810.91;;;14.89;53.00
56082;BME280;41957;52.060;5.138;2023-01-15T04:56:49;99808.25;;;14.89;53.30
56082;BME280;41957;52.060;5.138;2023-01-15T04:59:17;99804.97;;;14.84;53.33
56082;BME280;41957;52.060;5.138;2023-01-15T05:01:43;99819.16;;;14.83;53.26
56082;BME280;41957;52.060;5.138;2023-01-15T05:04:08;99813.22;;;14.78;53.21
56082;BME280;41957;52.060;5.138;2023-01-15T05:06:34;99822.25;;;14.74;53.03
56082;BME280;41957;52.060;5.138;2023-01-15T05:09:00;99808.88;;;14.77;53.12
56082;BME280;41957;52.060;5.138;2023-01-15T05:11:26;99804.13;;;14.84;53.27
56082;BME280;41957;52.060;5.138;2023-01-15T05:13:52;99805.97;;;14.82;52.98
56082;BME280;41957;52.060;5.138;2023-01-15T05:16:21;99803.50;;;14.79;52.87
56082;BME280;41957;52.060;5.138;2023-01-15T05:18:49;99794.78;;;14.77;52.98
56082;BME280;41957;52.060;5.138;2023-01-15T05:21:29;99798.50;;;14.73;52.90
56082;BME280;41957;52.060;5.138;2023-01-15T05:24:00;99799.88;;;14.64;52.95
56082;BME280;41957;52.060;5.138;2023-01-15T05:26:26;99817.44;;;14.65;53.24
56082;BME280;41957;52.060;5.138;2023-01-15T05:28:53;99809.34;;;14.68;52.97
56082;BME280;41957;52.060;5.138;2023-01-15T05:31:19;99805.69;;;14.71;53.08
56082;BME280;41957;52.060;5.138;2023-01-15T05:33:46;99803.09;;;14.69;52.92
56082;BME280;41957;52.060;5.138;2023-01-15T05:36:13;99796.28;;;14.65;53.04
56082;BME280;41957;52.060;5.138;2023-01-15T05:38:40;99794.09;;;14.56;53.13
56082;BME280;41957;52.060;5.138;2023-01-15T05:41:07;99799.94;;;14.62;53.23
56082;BME280;41957;52.060;5.138;2023-01-15T05:43:58;99785.53;;;14.68;53.10
56082;BME280;41957;52.060;5.138;2023-01-15T05:46:24;99789.44;;;14.61;53.28
56082;BME280;41957;52.060;5.138;2023-01-15T05:48:49;99787.88;;;14.57;53.24
56082;BME280;41957;52.060;5.138;2023-01-15T05:51:15;99787.88;;;14.57;53.05
56082;BME280;41957;52.060;5.138;2023-01-15T05:53:40;99796.81;;;14.54;53.36
56082;BME280;41957;52.060;5.138;2023-01-15T05:56:06;99798.38;;;14.58;53.43
56082;BME280;41957;52.060;5.138;2023-01-15T05:58:31;99806.22;;;14.60;53.53
56082;BME280;41957;52.060;5.138;2023-01-15T06:00:57;99810.50;;;14.62;53.15
56082;BME280;41957;52.060;5.138;2023-01-15T06:03:23;99817.44;;;14.65;53.22
56082;BME280;41957;52.060;5.138;2023-01-15T06:05:53;99807.00;;;14.62;53.42
56082;BME280;41957;52.060;5.138;2023-01-15T06:08:19;99816.94;;;14.57;53.10
56082;BME280;41957;52.060;5.138;2023-01-15T06:10:44;99818.69;;;14.58;53.00
56082;BME280;41957;52.060;5.138;2023-01-15T06:13:10;99815.25;;;14.56;53.05
56082;BME280;41957;52.060;5.138;2023-01-15T06:15:35;99825.69;;;14.59;52.96
56082;BME280;41957;52.060;5.138;2023-01-15T06:18:01;99838.13;;;14.57;52.83
56082;BME280;41957;52.060;5.138;2023-01-15T06:20:26;99835.47;;;14.57;52.78
56082;BME280;41957;52.060;5.138;2023-01-15T06:22:51;99827.53;;;14.57;53.04
56082;BME280;41957;52.060;5.138;2023-01-15T06:25:17;99830.34;;;14.54;52.75
56082;BME280;41957;52.060;5.138;2023-01-15T06:27:42;99828.97;;;14.45;52.55
56082;BME280;41957;52.060;5.138;2023-01-15T06:30:10;99831.84;;;14.40;52.66
56082;BME280;41957;52.060;5.138;2023-01-15T06:32:35;99830.84;;;14.43;52.85
56082;BME280;41957;52.060;5.138;2023-01-15T06:35:00;99829.22;;;14.40;52.78
56082;BME280;41957;52.060;5.138;2023-01-15T06:37:26;99837.94;;;14.42;53.02
56082;BME280;41957;52.060;5.138;2023-01-15T06:39:51;99839.78;;;14.40;52.87
56082;BME280;41957;52.060;5.138;2023-01-15T06:42:16;99834.84;;;14.33;53.02
56082;BME280;41957;52.060;5.138;2023-01-15T06:45:00;99839.06;;;14.37;53.26
56082;BME280;41957;52.060;5.138;2023-01-15T06:47:46;99826.00;;;14.34;53.18
56082;BME280;41957;52.060;5.138;2023-01-15T06:50:11;99827.78;;;14.33;53.06
56082;BME280;41957;52.060;5.138;2023-01-15T06:52:37;99826.47;;;14.25;53.16
56082;BME280;41957;52.060;5.138;2023-01-15T06:55:03;99827.06;;;14.30;52.95
56082;BME280;41957;52.060;5.138;2023-01-15T06:57:28;99822.19;;;14.22;53.27
56082;BME280;41957;52.060;5.138;2023-01-15T06:59:53;99812.22;;;14.27;53.10
56082;BME280;41957;52.060;5.138;2023-01-15T07:02:19;99811.34;;;14.27;53.05
56082;BME280;41957;52.060;5.138;2023-01-15T07:04:46;99815.59;;;14.31;53.08
56082;BME280;41957;52.060;5.138;2023-01-15T07:07:17;99821.88;;;14.28;52.97
56082;BME280;41957;52.060;5.138;2023-01-15T07:09:43;99826.38;;;14.26;53.02
56082;BME280;41957;52.060;5.138;2023-01-15T07:12:08;99823.88;;;14.23;53.01
56082;BME280;41957;52.060;5.138;2023-01-15T07:14:34;99825.66;;;14.22;53.19
56082;BME280;41957;52.060;5.138;2023-01-15T07:17:00;99828.16;;;14.26;52.90
56082;BME280;41957;52.060;5.138;2023-01-15T07:19:26;99815.94;;;14.23;52.57
56082;BME280;41957;52.060;5.138;2023-01-15T07:21:52;99824.88;;;14.20;52.78
56082;BME280;41957;52.060;5.138;2023-01-15T07:24:17;99821.47;;;14.18;52.83
56082;BME280;41957;52.060;5.138;2023-01-15T07:26:43;99823.97;;;14.21;52.93
56082;BME280;41957;52.060;5.138;2023-01-15T07:29:10;99808.88;;;14.23;52.64
56082;BME280;41957;52.060;5.138;2023-01-15T07:31:35;99811.66;;;14.20;52.74
56082;BME280;41957;52.060;5.138;2023-01-15T07:34:01;99812.81;;;14.15;52.68
56082;BME280;41957;52.060;5.138;2023-01-15T07:36:27;99820.53;;;14.19;52.53
56082;BME280;41957;52.060;5.138;2023-01-15T07:38:52;99814.53;;;14.16;52.61
56082;BME280;41957;52.060;5.138;2023-01-15T07:41:18;99824.13;;;14.18;52.68
56082;BME280;41957;52.060;5.138;2023-01-15T07:44:02;99828.38;;;14.21;52.48
56082;BME280;41957;52.060;5.138;2023-01-15T07:46:46;99820.59;;;14.18;52.35
56082;BME280;41957;52.060;5.138;2023-01-15T07:49:30;99811.97;;;14.14;52.32
56082;BME280;41957;52.060;5.138;2023-01-15T07:52:14;99814.69;;;14.13;52.18
56082;BME280;41957;52.060;5.138;2023-01-15T07:54:40;99826.81;;;14.17;52.23
56082;BME280;41957;52.060;5.138;2023-01-15T07:57:06;99814.13;;;14.06;52.17
56082;BME280;41957;52.060;5.138;2023-01-15T07:59:31;99818.47;;;14.07;52.37
56082;BME280;41957;52.060;5.138;2023-01-15T08:01:57;99816.38;;;14.14;52.21
56082;BME280;41957;52.060;5.138;2023-01-15T08:04:22;99819.13;;;14.30;51.64
56082;BME280;41957;52.060;5.138;2023-01-15T08:06:48;99814.16;;;14.60;50.36
56082;BME280;41957;52.060;5.138;2023-01-15T08:09:13;99805.75;;;14.86;49.55
56082;BME280;41957;52.060;5.138;2023-01-15T08:11:39;99814.38;;;15.07;49.29
56082;BME280;41957;52.060;5.138;2023-01-15T08:14:22;99817.69;;;15.28;48.81
56082;BME280;41957;52.060;5.138;2023-01-15T08:17:06;99819.44;;;15.45;48.26
56082;BME280;41957;52.060;5.138;2023-01-15T08:19:32;99822.34;;;15.56;48.31
56082;BME280;41957;52.060;5.138;2023-01-15T08:21:58;99819.16;;;15.67;47.78
56082;BME280;41957;52.060;5.138;2023-01-15T08:24:25;99822.25;;;15.75;47.92
56082;BME280;41957;52.060;5.138;2023-01-15T08:26:51;99819.09;;;15.85;47.90
56082;BME280;41957;52.060;5.138;2023-01-15T08:29:17;99815.06;;;15.93;47.35
56082;BME280;41957;52.060;5.138;2023-01-15T08:31:42;99816.44;;;16.00;47.43
56082;BME280;41957;52.060;5.138;2023-01-15T08:34:08;99804.63;;;16.06;47.04
56082;BME280;41957;52.060;5.138;2023-01-15T08:36:34;99814.22;;;16.09;47.15
56082;BME280;41957;52.060;5.138;2023-01-15T08:38:59;99818.50;;;16.11;47.16
56082;BME280;41957;52.060;5.138;2023-01-15T08:41:25;99818.50;;;16.11;46.98
56082;BME280;41957;52.060;5.138;2023-01-15T08:43:50;99795.75;;;16.07;46.57
56082;BME280;41957;52.060;5.138;2023-01-15T08:46:15;99801.91;;;16.08;46.79
56082;BME280;41957;52.060;5.138;2023-01-15T08:48:41;99805.31;;;16.10;46.99
56082;BME280;41957;52.060;5.138;2023-01-15T08:51:08;99813.38;;;16.08;46.90
56082;BME280;41957;52.060;5.138;2023-01-15T08:53:34;99802.75;;;16.08;47.02
56082;BME280;41957;52.060;5.138;2023-01-15T08:55:59;99793.84;;;16.09;46.87
56082;BME280;41957;52.060;5.138;2023-01-15T08:58:29;99814.13;;;16.10;47.08
56082;BME280;41957;52.060;5.138;2023-01-15T09:00:55;99810.59;;;16.10;47.10
56082;BME280;41957;52.060;5.138;2023-01-15T09:03:20;99822.09;;;16.10;46.85
56082;BME280;41957;52.060;5.138;2023-01-15T09:05:45;99819.63;;;16.07;47.01
56082;BME280;41957;52.060;5.138;2023-01-15T09:08:11;99822.50;;;16.02;46.62
56082;BME280;41957;52.060;5.138;2023-01-15T09:10:36;99815.56;;;16.00;46.60
56082;BME280;41957;52.060;5.138;2023-01-15T09:13:02;99818.91;;;16.03;46.83
56082;BME280;41957;52.060;5.138;2023-01-15T09:15:30;99821.66;;;16.02;46.82
56082;BME280;41957;52.060;5.138;2023-01-15T09:17:55;99816.44;;;16.00;46.54
56082;BME280;41957;52.060;5.138;2023-01-15T09:20:21;99832.09;;;16.05;46.83
56082;BME280;41957;52.060;5.138;2023-01-15T09:22:47;99818.50;;;16.11;47.41
56082;BME280;41957;52.060;5.138;2023-01-15T09:25:13;99824.47;;;16.15;47.61
56082;BME280;41957;52.060;5.138;2023-01-15T09:27:40;99821.13;;;16.11;48.20
56082;BME280;41957;52.060;5.138;2023-01-15T09:30:07;99835.53;;;16.07;48.88
56082;BME280;41957;52.060;5.138;2023-01-15T09:32:32;99827.75;;;16.04;49.02
56082;BME280;41957;52.060;5.138;2023-01-15T09:34:57;99812.84;;;16.01;46.69
56082;BME280;41957;52.060;5.138;2023-01-15T09:37:23;99817.66;;;15.95;46.39
56082;BME280;41957;52.060;5.138;2023-01-15T09:39:48;99813.09;;;15.81;46.43
56082;BME280;41957;52.060;5.138;2023-01-15T09:42:26;99817.97;;;15.73;45.98
56082;BME280;41957;52.060;5.138;2023-01-15T09:45:29;99815.88;;;15.62;46.60
56082;BME280;41957;52.060;5.138;2023-01-15T09:55:47;99823.97;;;15.76;48.78
56082;BME280;41957;52.060;5.138;2023-01-15T09:58:16;99811.56;;;15.77;48.77
56082;BME280;41957;52.060;5.138;2023-01-15T10:00:45;99823.81;;;15.79;49.16
56082;BME280;41957;52.060;5.138;2023-01-15T10:03:39;99830.13;;;15.77;48.80
56082;BME280;41957;52.060;5.138;2023-01-15T10:08:46;99823.97;;;15.76;49.06
56082;BME280;41957;52.060;5.138;2023-01-15T10:11:29;99822.06;;;15.78;48.76
56082;BME280;41957;52.060;5.138;2023-01-15T10:14:33;99822.69;;;15.68;48.62
56082;BME280;41957;52.060;5.138;2023-01-15T10:17:05;99806.34;;;15.75;48.97
56082;BME280;41957;52.060;5.138;2023-01-15T10:19:39;99822.34;;;15.41;47.00
56082;BME280;41957;52.060;5.138;2023-01-15T10:22:32;99821.41;;;15.24;47.77
56082;BME280;41957;52.060;5.138;2023-01-15T10:25:06;99826.69;;;15.42;47.78
56082;BME280;41957;52.060;5.138;2023-01-15T10:27:33;99833.81;;;15.57;47.97
56082;BME280;41957;52.060;5.138;2023-01-15T10:32:46;99819.00;;;15.70;47.69
56082;BME280;41957;52.060;5.138;2023-01-15T10:38:00;99835.28;;;15.63;47.11
56082;BME280;41957;52.060;5.138;2023-01-15T10:45:59;99844.38;;;15.74;47.51
56082;BME280;41957;52.060;5.138;2023-01-15T10:48:29;99844.22;;;15.77;47.28
56082;BME280;41957;52.060;5.138;2023-01-15T10:51:00;99843.09;;;15.81;46.97
56082;BME280;41957;52.060;5.138;2023-01-15T10:56:11;99842.94;;;15.85;46.90
56082;BME280;41957;52.060;5.138;2023-01-15T10:58:44;99839.19;;;15.89;46.99
56082;BME280;41957;52.060;5.138;2023-01-15T11:01:16;99837.28;;;15.91;47.12
56082;BME280;41957;52.060;5.138;2023-01-15T11:03:44;99839.72;;;15.95;46.77
56082;BME280;41957;52.060;5.138;2023-01-15T11:06:14;99848.75;;;15.91;47.10
56082;BME280;41957;52.060;5.138;2023-01-15T11:08:48;99845.75;;;15.97;46.85
56082;BME280;41957;52.060;5.138;2023-01-15T11:14:08;99864.31;;;15.97;46.66
56082;BME280;41957;52.060;5.138;2023-01-15T11:16:53;99849.47;;;15.95;46.89
56082;BME280;41957;52.060;5.138;2023-01-15T11:19:38;99846.81;;;15.95;46.75
56082;BME280;41957;52.060;5.138;2023-01-15T11:22:13;99844.31;;;15.92;46.75
56082;BME280;41957;52.060;5.138;2023-01-15T11:24:50;99853.19;;;15.91;47.26
56082;BME280;41957;52.060;5.138;2023-01-15T11:27:23;99839.09;;;15.90;46.87
56082;BME280;41957;52.060;5.138;2023-01-15T11:29:55;99854.16;;;15.90;47.22
56082;BME280;41957;52.060;5.138;2023-01-15T11:32:30;99862.94;;;15.90;47.35
56082;BME280;41957;52.060;5.138;2023-01-15T11:34:58;99845.06;;;15.94;47.17
56082;BME280;41957;52.060;5.138;2023-01-15T11:37:25;99848.91;;;15.88;47.10
56082;BME280;41957;52.060;5.138;2023-01-15T11:39:56;99843.09;;;15.81;47.27
56082;BME280;41957;52.060;5.138;2023-01-15T11:42:24;99826.78;;;15.73;47.08
56082;BME280;41957;52.060;5.138;2023-01-15T11:45:14;99839.88;;;15.76;46.44
56082;BME280;41957;52.060;5.138;2023-01-15T11:47:59;99839.16;;;15.73;47.39
56082;BME280;41957;52.060;5.138;2023-01-15T11:53:25;99840.94;;;15.72;47.56
56082;BME280;41957;52.060;5.138;2023-01-15T11:55:54;99850.63;;;15.73;47.58
56082;BME280;41957;52.060;5.138;2023-01-15T11:58:24;99846.25;;;15.72;47.74
56082;BME280;41957;52.060;5.138;2023-01-15T12:00:51;99826.84;;;15.72;48.11
56082;BME280;41957;52.060;5.138;2023-01-15T12:03:20;99835.59;;;15.74;47.72
56082;BME280;41957;52.060;5.138;2023-01-15T12:05:54;99843.19;;;15.80;48.06
56082;BME280;41957;52.060;5.138;2023-01-15T12:11:38;99840.78;;;15.75;48.50
56082;BME280;41957;52.060;5.138;2023-01-15T12:33:00;99830.81;;;15.63;49.82
56082;BME280;41957;52.060;5.138;2023-01-15T12:35:33;99853.19;;;15.57;49.97
56082;BME280;41957;52.060;5.138;2023-01-15T12:38:21;99862.44;;;15.66;50.13
56082;BME280;41957;52.060;5.138;2023-01-15T12:40:57;99862.00;;;15.75;49.84
56082;BME280;41957;52.060;5.138;2023-01-15T12:43:26;99845.59;;;15.85;50.14
56082;BME280;41957;52.060;5.138;2023-01-15T12:46:14;99852.34;;;15.90;50.10
56082;BME280;41957;52.060;5.138;2023-01-15T12:48:50;99837.81;;;15.97;50.33
56082;BME280;41957;52.060;5.138;2023-01-15T12:51:28;99844.72;;;16.00;50.58
56082;BME280;41957;52.060;5.138;2023-01-15T12:54:04;99843.47;;;16.07;50.13
56082;BME280;41957;52.060;5.138;2023-01-15T12:57:32;99854.41;;;16.33;50.20
56082;BME280;41957;52.060;5.138;2023-01-15T12:59:54;99837.59;;;16.48;50.26
56082;BME280;41957;52.060;5.138;2023-01-15T13:02:32;99833.44;;;16.74;50.31
56082;BME280;41957;52.060;5.138;2023-01-15T13:05:18;99843.19;;;16.73;49.68
56082;BME280;41957;52.060;5.138;2023-01-15T13:07:53;99842.31;;;16.89;50.38
56082;BME280;41957;52.060;5.138;2023-01-15T13:10:23;99843.69;;;16.96;50.68
56082;BME280;41957;52.060;5.138;2023-01-15T13:13:12;99849.84;;;16.96;52.05
56082;BME280;41957;52.060;5.138;2023-01-15T13:21:13;99868.84;;;17.19;51.15
56082;BME280;41957;52.060;5.138;2023-01-15T13:26:50;99861.56;;;17.23;51.06
56082;BME280;41957;52.060;5.138;2023-01-15T13:35:00;99858.16;;;17.35;52.29
56082;BME280;41957;52.060;5.138;2023-01-15T13:37:33;99868.69;;;17.36;51.38
56082;BME280;41957;52.060;5.138;2023-01-15T13:40:06;99860.22;;;17.30;51.05
56082;BME280;41957;52.060;5.138;2023-01-15T13:42:35;99861.00;;;17.32;51.58
56082;BME280;41957;52.060;5.138;2023-01-15T13:47:51;99865.94;;;18.78;48.36
56082;BME280;41957;52.060;5.138;2023-01-15T13:50:28;99865.94;;;18.78;48.36
56082;BME280;41957;52.060;5.138;2023-01-15T13:53:12;99878.03;;;19.35;46.72
56082;BME280;41957;52.060;5.138;2023-01-15T13:55:42;99858.09;;;19.53;46.08
